sensor_id;sensor_type;location;lat;lon;timestamp;P1;durP1;ratioP1;P2;durP2;ratioP2
22363;SDS011;11349;53.412;-1.328;2023-03-23T00:01:22;1.95;;;0.40;;
22363;SDS011;11349;53.412;-1.328;2023-03-23T00:03:50;2.83;;;0.50;;
22363;SDS011;11349;53.412;-1.328;2023-03-23T00:06:17;2.58;;;0.52;;
22363;SDS011;11349;53.412;-1.328;2023-03-23T00:08:45;1.77;;;0.60;;
22363;SDS011;11349;53.412;-1.328;2023-03-23T00:11:21;3.08;;;0.55;;
22363;SDS011;11349;53.412;-1.328;2023-03-23T00:13:51;1.80;;;0.47;;
22363;SDS011;11349;53.412;-1.328;2023-03-23T00:16:18;2.10;;;0.40;;
22363;SDS011;11349;53.412;-1.328;2023-03-23T00:18:46;3.33;;;0.60;;
22363;SDS011;11349;53.412;-1.328;2023-03-23T00:21:14;1.63;;;0.50;;
22363;SDS011;11349;53.412;-1.328;2023-03-23T00:23:40;1.90;;;0.60;;
22363;SDS011;11349;53.412;-1.328;2023-03-23T00:26:10;2.78;;;0.80;;
22363;SDS011;11349;53.412;-1.328;2023-03-23T00:28:36;3.33;;;0.55;;
22363;SDS011;11349;53.412;-1.328;2023-03-23T00:31:05;3.20;;;0.85;;
22363;SDS011;11349;53.412;-1.328;2023-03-23T00:33:33;4.50;;;0.68;;
22363;SDS011;11349;53.412;-1.328;2023-03-23T00:36:05;3.65;;;0.77;;
22363;SDS011;11349;53.412;-1.328;2023-03-23T00:38:33;5.95;;;1.63;;
22363;SDS011;11349;53.412;-1.328;2023-03-23T00:41:00;3.78;;;0.80;;
22363;SDS011;11349;53.412;-1.328;2023-03-23T00:43:27;4.45;;;1.10;;
22363;SDS011;11349;53.412;-1.328;2023-03-23T00:45:54;3.28;;;0.75;;
22363;SDS011;11349;53.412;-1.328;2023-03-23T00:48:20;3.83;;;0.80;;
22363;SDS011;11349;53.412;-1.328;2023-03-23T00:50:48;6.72;;;1.30;;
22363;SDS011;11349;53.412;-1.328;2023-03-23T00:53:15;7.85;;;1.00;;
22363;SDS011;11349;53.412;-1.328;2023-03-23T00:55:42;5.15;;;0.98;;
22363;SDS011;11349;53.412;-1.328;2023-03-23T00:58:09;4.88;;;1.20;;
22363;SDS011;11349;53.412;-1.328;2023-03-23T01:00:35;4.57;;;1.30;;
22363;SDS011;11349;53.412;-1.328;2023-03-23T01:03:01;5.93;;;1.05;;
22363;SDS011;11349;53.412;-1.328;2023-03-23T01:05:27;3.22;;;0.82;;
22363;SDS011;11349;53.412;-1.328;2023-03-23T01:08:00;6.10;;;1.13;;
22363;SDS011;11349;53.412;-1.328;2023-03-23T01:10:26;4.78;;;0.93;;
22363;SDS011;11349;53.412;-1.328;2023-03-23T01:12:55;3.22;;;1.02;;
22363;SDS011;11349;53.412;-1.328;2023-03-23T01:15:21;5.47;;;1.02;;
22363;SDS011;11349;53.412;-1.328;2023-03-23T01:17:47;4.70;;;1.25;;
22363;SDS011;11349;53.412;-1.328;2023-03-23T01:20:13;5.28;;;1.52;;
22363;SDS011;11349;53.412;-1.328;2023-03-23T01:22:40;6.13;;;1.35;;
22363;SDS011;11349;53.412;-1.328;2023-03-23T01:25:10;5.80;;;1.33;;
22363;SDS011;11349;53.412;-1.328;2023-03-23T01:27:37;3.65;;;1.35;;
22363;SDS011;11349;53.412;-1.328;2023-03-23T01:30:04;7.00;;;1.55;;
22363;SDS011;11349;53.412;-1.328;2023-03-23T01:32:32;6.05;;;1.05;;
22363;SDS011;11349;53.412;-1.328;2023-03-23T01:34:58;5.75;;;1.40;;
22363;SDS011;11349;53.412;-1.328;2023-03-23T01:37:24;4.60;;;1.00;;
22363;SDS011;11349;53.412;-1.328;2023-03-23T01:39:54;7.68;;;2.13;;
22363;SDS011;11349;53.412;-1.328;2023-03-23T01:42:25;7.95;;;1.35;;
22363;SDS011;11349;53.412;-1.328;2023-03-23T01:47:39;8.13;;;1.48;;
22363;SDS011;11349;53.412;-1.328;2023-03-23T01:50:05;9.20;;;1.30;;
22363;SDS011;11349;53.412;-1.328;2023-03-23T01:52:33;5.80;;;1.25;;
22363;SDS011;11349;53.412;-1.328;2023-03-23T01:55:01;5.88;;;1.10;;
22363;SDS011;11349;53.412;-1.328;2023-03-23T01:57:28;7.60;;;2.05;;
22363;SDS011;11349;53.412;-1.328;2023-03-23T01:59:55;6.00;;;1.13;;
22363;SDS011;11349;53.412;-1.328;2023-03-23T02:02:25;7.82;;;1.52;;
22363;SDS011;11349;53.412;-1.328;2023-03-23T02:04:51;9.55;;;1.55;;
22363;SDS011;11349;53.412;-1.328;2023-03-23T02:07:24;8.75;;;1.52;;
22363;SDS011;11349;53.412;-1.328;2023-03-23T02:09:50;6.53;;;1.50;;
22363;SDS011;11349;53.412;-1.328;2023-03-23T02:12:16;9.60;;;1.40;;
22363;SDS011;11349;53.412;-1.328;2023-03-23T02:14:42;6.85;;;1.02;;
22363;SDS011;11349;53.412;-1.328;2023-03-23T02:17:15;6.28;;;1.15;;
22363;SDS011;11349;53.412;-1.328;2023-03-23T02:20:13;6.50;;;1.17;;
22363;SDS011;11349;53.412;-1.328;2023-03-23T02:28:05;5.93;;;1.10;;
22363;SDS011;11349;53.412;-1.328;2023-03-23T02:38:27;9.25;;;1.75;;
22363;SDS011;11349;53.412;-1.328;2023-03-23T02:40:56;5.70;;;1.60;;
22363;SDS011;11349;53.412;-1.328;2023-03-23T02:43:26;6.57;;;1.52;;
22363;SDS011;11349;53.412;-1.328;2023-03-23T02:45:55;8.93;;;1.30;;
22363;SDS011;11349;53.412;-1.328;2023-03-23T02:48:24;10.95;;;2.85;;
22363;SDS011;11349;53.412;-1.328;2023-03-23T02:50:53;10.95;;;1.30;;
22363;SDS011;11349;53.412;-1.328;2023-03-23T02:53:21;5.90;;;1.77;;
22363;SDS011;11349;53.412;-1.328;2023-03-23T02:55:48;7.90;;;1.27;;
22363;SDS011;11349;53.412;-1.328;2023-03-23T02:58:17;5.68;;;1.48;;
22363;SDS011;11349;53.412;-1.328;2023-03-23T03:00:45;7.97;;;1.63;;
22363;SDS011;11349;53.412;-1.328;2023-03-23T03:03:15;9.68;;;1.40;;
22363;SDS011;11349;53.412;-1.328;2023-03-23T03:05:49;7.20;;;1.65;;
22363;SDS011;11349;53.412;-1.328;2023-03-23T03:11:14;7.53;;;1.17;;
22363;SDS011;11349;53.412;-1.328;2023-03-23T03:19:20;10.20;;;2.17;;
22363;SDS011;11349;53.412;-1.328;2023-03-23T03:21:54;6.10;;;1.52;;
22363;SDS011;11349;53.412;-1.328;2023-03-23T03:24:22;9.85;;;1.67;;
22363;SDS011;11349;53.412;-1.328;2023-03-23T03:26:51;8.85;;;1.50;;
22363;SDS011;11349;53.412;-1.328;2023-03-23T03:29:23;8.45;;;1.90;;
22363;SDS011;11349;53.412;-1.328;2023-03-23T03:31:52;8.93;;;1.83;;
22363;SDS011;11349;53.412;-1.328;2023-03-23T03:34:20;7.28;;;1.50;;
22363;SDS011;11349;53.412;-1.328;2023-03-23T03:36:48;8.98;;;2.15;;
22363;SDS011;11349;53.412;-1.328;2023-03-23T03:39:17;9.20;;;1.55;;
22363;SDS011;11349;53.412;-1.328;2023-03-23T03:41:44;8.88;;;1.88;;
22363;SDS011;11349;53.412;-1.328;2023-03-23T03:44:10;10.52;;;2.22;;
22363;SDS011;11349;53.412;-1.328;2023-03-23T03:46:37;11.18;;;1.65;;
22363;SDS011;11349;53.412;-1.328;2023-03-23T03:49:04;9.82;;;2.85;;
22363;SDS011;11349;53.412;-1.328;2023-03-23T03:51:32;8.43;;;1.77;;
22363;SDS011;11349;53.412;-1.328;2023-03-23T03:54:00;13.77;;;1.98;;
22363;SDS011;11349;53.412;-1.328;2023-03-23T03:56:26;11.32;;;2.38;;
22363;SDS011;11349;53.412;-1.328;2023-03-23T03:58:52;7.57;;;1.70;;
22363;SDS011;11349;53.412;-1.328;2023-03-23T04:01:19;11.95;;;1.90;;
22363;SDS011;11349;53.412;-1.328;2023-03-23T04:03:47;6.72;;;1.80;;
22363;SDS011;11349;53.412;-1.328;2023-03-23T04:06:14;11.35;;;2.00;;
22363;SDS011;11349;53.412;-1.328;2023-03-23T04:08:41;12.13;;;2.28;;
22363;SDS011;11349;53.412;-1.328;2023-03-23T04:11:08;13.02;;;2.08;;
22363;SDS011;11349;53.412;-1.328;2023-03-23T04:13:39;10.32;;;2.15;;
22363;SDS011;11349;53.412;-1.328;2023-03-23T04:16:05;13.13;;;2.13;;
22363;SDS011;11349;53.412;-1.328;2023-03-23T04:18:31;9.82;;;1.63;;
22363;SDS011;11349;53.412;-1.328;2023-03-23T04:20:59;8.98;;;1.88;;
22363;SDS011;11349;53.412;-1.328;2023-03-23T04:23:26;11.32;;;2.35;;
22363;SDS011;11349;53.412;-1.328;2023-03-23T04:25:55;9.40;;;1.75;;
22363;SDS011;11349;53.412;-1.328;2023-03-23T04:28:23;9.18;;;1.77;;
22363;SDS011;11349;53.412;-1.328;2023-03-23T04:30:50;15.45;;;2.20;;
22363;SDS011;11349;53.412;-1.328;2023-03-23T04:33:23;13.80;;;2.60;;
22363;SDS011;11349;53.412;-1.328;2023-03-23T04:35:54;11.25;;;2.75;;
22363;SDS011;11349;53.412;-1.328;2023-03-23T04:38:26;12.27;;;2.50;;
22363;SDS011;11349;53.412;-1.328;2023-03-23T04:40:53;9.05;;;1.58;;
22363;SDS011;11349;53.412;-1.328;2023-03-23T04:43:22;11.43;;;2.55;;
22363;SDS011;11349;53.412;-1.328;2023-03-23T04:45:52;13.93;;;2.40;;
22363;SDS011;11349;53.412;-1.328;2023-03-23T04:48:26;8.93;;;2.08;;
22363;SDS011;11349;53.412;-1.328;2023-03-23T04:50:53;13.98;;;2.22;;
22363;SDS011;11349;53.412;-1.328;2023-03-23T04:53:19;11.52;;;2.03;;
22363;SDS011;11349;53.412;-1.328;2023-03-23T04:55:46;13.40;;;2.15;;
22363;SDS011;11349;53.412;-1.328;2023-03-23T04:58:12;9.93;;;1.90;;
22363;SDS011;11349;53.412;-1.328;2023-03-23T05:00:39;13.00;;;2.15;;
22363;SDS011;11349;53.412;-1.328;2023-03-23T05:03:05;12.52;;;1.90;;
22363;SDS011;11349;53.412;-1.328;2023-03-23T05:05:33;9.90;;;1.90;;
22363;SDS011;11349;53.412;-1.328;2023-03-23T05:07:59;13.35;;;2.17;;
22363;SDS011;11349;53.412;-1.328;2023-03-23T05:10:25;10.27;;;2.25;;
22363;SDS011;11349;53.412;-1.328;2023-03-23T05:12:52;17.77;;;2.53;;
22363;SDS011;11349;53.412;-1.328;2023-03-23T05:15:18;14.43;;;3.40;;
22363;SDS011;11349;53.412;-1.328;2023-03-23T05:17:44;8.80;;;1.83;;
22363;SDS011;11349;53.412;-1.328;2023-03-23T05:20:17;15.43;;;2.80;;
22363;SDS011;11349;53.412;-1.328;2023-03-23T05:22:45;12.50;;;2.40;;
22363;SDS011;11349;53.412;-1.328;2023-03-23T05:25:14;16.08;;;3.05;;
22363;SDS011;11349;53.412;-1.328;2023-03-23T05:27:44;11.13;;;2.38;;
22363;SDS011;11349;53.412;-1.328;2023-03-23T05:30:13;16.45;;;2.53;;
22363;SDS011;11349;53.412;-1.328;2023-03-23T05:32:43;15.15;;;3.63;;
22363;SDS011;11349;53.412;-1.328;2023-03-23T05:35:10;11.75;;;2.50;;
22363;SDS011;11349;53.412;-1.328;2023-03-23T05:37:37;15.18;;;2.30;;
22363;SDS011;11349;53.412;-1.328;2023-03-23T05:40:03;19.95;;;4.68;;
22363;SDS011;11349;53.412;-1.328;2023-03-23T05:42:34;13.02;;;2.60;;
22363;SDS011;11349;53.412;-1.328;2023-03-23T05:45:03;8.38;;;2.30;;
22363;SDS011;11349;53.412;-1.328;2023-03-23T05:47:30;12.95;;;2.28;;
22363;SDS011;11349;53.412;-1.328;2023-03-23T05:49:56;10.73;;;2.10;;
22363;SDS011;11349;53.412;-1.328;2023-03-23T05:52:22;13.05;;;2.47;;
22363;SDS011;11349;53.412;-1.328;2023-03-23T05:54:49;11.10;;;2.20;;
22363;SDS011;11349;53.412;-1.328;2023-03-23T05:57:17;15.45;;;2.83;;
22363;SDS011;11349;53.412;-1.328;2023-03-23T05:59:44;13.90;;;2.70;;
22363;SDS011;11349;53.412;-1.328;2023-03-23T06:02:10;13.50;;;2.65;;
22363;SDS011;11349;53.412;-1.328;2023-03-23T06:04:36;13.35;;;2.25;;
22363;SDS011;11349;53.412;-1.328;2023-03-23T06:07:03;15.75;;;2.92;;
22363;SDS011;11349;53.412;-1.328;2023-03-23T06:09:28;12.65;;;2.63;;
22363;SDS011;11349;53.412;-1.328;2023-03-23T06:11:55;10.57;;;2.17;;
22363;SDS011;11349;53.412;-1.328;2023-03-23T06:14:22;11.98;;;3.30;;
22363;SDS011;11349;53.412;-1.328;2023-03-23T06:16:48;11.48;;;2.88;;
22363;SDS011;11349;53.412;-1.328;2023-03-23T06:19:13;11.00;;;2.78;;
22363;SDS011;11349;53.412;-1.328;2023-03-23T06:21:40;10.70;;;2.47;;
22363;SDS011;11349;53.412;-1.328;2023-03-23T06:24:07;13.38;;;3.03;;
22363;SDS011;11349;53.412;-1.328;2023-03-23T06:26:34;13.52;;;3.58;;
22363;SDS011;11349;53.412;-1.328;2023-03-23T06:29:05;9.70;;;2.35;;
22363;SDS011;11349;53.412;-1.328;2023-03-23T06:31:36;14.80;;;3.58;;
22363;SDS011;11349;53.412;-1.328;2023-03-23T06:34:07;21.98;;;3.15;;
22363;SDS011;11349;53.412;-1.328;2023-03-23T06:36:39;18.35;;;3.08;;
22363;SDS011;11349;53.412;-1.328;2023-03-23T06:39:05;13.48;;;3.13;;
22363;SDS011;11349;53.412;-1.328;2023-03-23T06:41:34;15.13;;;2.83;;
22363;SDS011;11349;53.412;-1.328;2023-03-23T06:44:00;13.40;;;3.13;;
22363;SDS011;11349;53.412;-1.328;2023-03-23T06:46:26;11.90;;;2.42;;
22363;SDS011;11349;53.412;-1.328;2023-03-23T06:48:53;16.73;;;3.17;;
22363;SDS011;11349;53.412;-1.328;2023-03-23T06:51:19;15.52;;;3.17;;
22363;SDS011;11349;53.412;-1.328;2023-03-23T06:53:45;16.42;;;2.55;;
22363;SDS011;11349;53.412;-1.328;2023-03-23T06:56:11;21.70;;;3.90;;
22363;SDS011;11349;53.412;-1.328;2023-03-23T06:58:38;10.60;;;2.75;;
22363;SDS011;11349;53.412;-1.328;2023-03-23T07:01:04;9.48;;;2.10;;
22363;SDS011;11349;53.412;-1.328;2023-03-23T07:03:30;10.90;;;2.72;;
22363;SDS011;11349;53.412;-1.328;2023-03-23T07:05:59;14.02;;;3.17;;
22363;SDS011;11349;53.412;-1.328;2023-03-23T07:08:25;21.60;;;3.47;;
22363;SDS011;11349;53.412;-1.328;2023-03-23T07:10:51;16.30;;;2.72;;
22363;SDS011;11349;53.412;-1.328;2023-03-23T07:13:19;15.65;;;3.60;;
22363;SDS011;11349;53.412;-1.328;2023-03-23T07:15:45;12.25;;;2.90;;
22363;SDS011;11349;53.412;-1.328;2023-03-23T07:18:11;13.35;;;2.92;;
22363;SDS011;11349;53.412;-1.328;2023-03-23T07:20:37;11.88;;;2.65;;
22363;SDS011;11349;53.412;-1.328;2023-03-23T07:23:03;22.50;;;4.57;;
22363;SDS011;11349;53.412;-1.328;2023-03-23T07:25:32;10.88;;;2.20;;
22363;SDS011;11349;53.412;-1.328;2023-03-23T07:28:01;19.90;;;2.83;;
22363;SDS011;11349;53.412;-1.328;2023-03-23T07:30:28;16.85;;;3.55;;
22363;SDS011;11349;53.412;-1.328;2023-03-23T07:32:55;19.92;;;3.38;;
22363;SDS011;11349;53.412;-1.328;2023-03-23T07:35:22;19.02;;;3.60;;
22363;SDS011;11349;53.412;-1.328;2023-03-23T07:37:48;11.82;;;2.33;;
22363;SDS011;11349;53.412;-1.328;2023-03-23T07:40:15;14.63;;;3.15;;
22363;SDS011;11349;53.412;-1.328;2023-03-23T07:42:44;21.35;;;3.28;;
22363;SDS011;11349;53.412;-1.328;2023-03-23T07:45:20;13.57;;;3.55;;
22363;SDS011;11349;53.412;-1.328;2023-03-23T07:47:48;13.95;;;3.40;;
22363;SDS011;11349;53.412;-1.328;2023-03-23T07:50:15;17.52;;;3.92;;
22363;SDS011;11349;53.412;-1.328;2023-03-23T07:52:41;10.80;;;3.08;;
22363;SDS011;11349;53.412;-1.328;2023-03-23T07:55:07;19.55;;;4.47;;
22363;SDS011;11349;53.412;-1.328;2023-03-23T07:57:45;17.95;;;3.10;;
22363;SDS011;11349;53.412;-1.328;2023-03-23T08:00:15;13.57;;;3.42;;
22363;SDS011;11349;53.412;-1.328;2023-03-23T08:02:45;15.88;;;3.70;;
22363;SDS011;11349;53.412;-1.328;2023-03-23T08:05:22;19.55;;;4.88;;
22363;SDS011;11349;53.412;-1.328;2023-03-23T08:07:51;17.77;;;2.83;;
22363;SDS011;11349;53.412;-1.328;2023-03-23T08:10:19;20.20;;;4.47;;
22363;SDS011;11349;53.412;-1.328;2023-03-23T08:12:50;19.63;;;4.80;;
22363;SDS011;11349;53.412;-1.328;2023-03-23T08:15:17;14.15;;;3.40;;
22363;SDS011;11349;53.412;-1.328;2023-03-23T08:17:44;21.35;;;4.03;;
22363;SDS011;11349;53.412;-1.328;2023-03-23T08:20:10;12.10;;;3.33;;
22363;SDS011;11349;53.412;-1.328;2023-03-23T08:22:41;16.83;;;3.35;;
22363;SDS011;11349;53.412;-1.328;2023-03-23T08:25:10;11.20;;;2.75;;
22363;SDS011;11349;53.412;-1.328;2023-03-23T08:27:38;16.95;;;2.78;;
22363;SDS011;11349;53.412;-1.328;2023-03-23T08:30:08;18.50;;;3.90;;
22363;SDS011;11349;53.412;-1.328;2023-03-23T08:32:39;20.55;;;4.93;;
22363;SDS011;11349;53.412;-1.328;2023-03-23T08:35:07;14.80;;;3.78;;
22363;SDS011;11349;53.412;-1.328;2023-03-23T08:37:34;18.77;;;4.25;;
22363;SDS011;11349;53.412;-1.328;2023-03-23T08:40:00;13.35;;;2.60;;
22363;SDS011;11349;53.412;-1.328;2023-03-23T08:42:33;20.50;;;3.10;;
22363;SDS011;11349;53.412;-1.328;2023-03-23T08:44:59;13.07;;;2.83;;
22363;SDS011;11349;53.412;-1.328;2023-03-23T08:47:25;16.73;;;3.67;;
22363;SDS011;11349;53.412;-1.328;2023-03-23T08:49:51;11.70;;;2.92;;
22363;SDS011;11349;53.412;-1.328;2023-03-23T08:52:19;11.93;;;2.92;;
22363;SDS011;11349;53.412;-1.328;2023-03-23T08:54:45;15.25;;;3.58;;
22363;SDS011;11349;53.412;-1.328;2023-03-23T08:57:12;17.13;;;3.92;;
22363;SDS011;11349;53.412;-1.328;2023-03-23T08:59:39;16.00;;;3.10;;
22363;SDS011;11349;53.412;-1.328;2023-03-23T09:02:06;17.65;;;3.17;;
22363;SDS011;11349;53.412;-1.328;2023-03-23T09:04:34;15.43;;;3.08;;
22363;SDS011;11349;53.412;-1.328;2023-03-23T09:07:00;16.75;;;3.78;;
22363;SDS011;11349;53.412;-1.328;2023-03-23T09:09:26;19.75;;;4.30;;
22363;SDS011;11349;53.412;-1.328;2023-03-23T09:11:52;19.88;;;3.55;;
22363;SDS011;11349;53.412;-1.328;2023-03-23T09:14:18;13.75;;;2.53;;
22363;SDS011;11349;53.412;-1.328;2023-03-23T09:16:44;10.52;;;2.38;;
22363;SDS011;11349;53.412;-1.328;2023-03-23T09:19:10;17.05;;;3.47;;
22363;SDS011;11349;53.412;-1.328;2023-03-23T09:21:37;10.68;;;2.45;;
22363;SDS011;11349;53.412;-1.328;2023-03-23T09:24:04;12.23;;;2.63;;
22363;SDS011;11349;53.412;-1.328;2023-03-23T09:26:30;15.32;;;3.83;;
22363;SDS011;11349;53.412;-1.328;2023-03-23T09:28:57;20.67;;;4.03;;
22363;SDS011;11349;53.412;-1.328;2023-03-23T09:31:23;13.60;;;3.40;;
22363;SDS011;11349;53.412;-1.328;2023-03-23T09:33:51;17.60;;;3.28;;
22363;SDS011;11349;53.412;-1.328;2023-03-23T09:36:21;17.15;;;3.05;;
22363;SDS011;11349;53.412;-1.328;2023-03-23T09:38:47;16.77;;;2.95;;
22363;SDS011;11349;53.412;-1.328;2023-03-23T09:49:10;14.32;;;2.90;;
22363;SDS011;11349;53.412;-1.328;2023-03-23T09:54:37;17.23;;;2.53;;
22363;SDS011;11349;53.412;-1.328;2023-03-23T09:57:10;14.40;;;2.38;;
22363;SDS011;11349;53.412;-1.328;2023-03-23T09:59:49;10.23;;;2.50;;
22363;SDS011;11349;53.412;-1.328;2023-03-23T10:02:27;12.35;;;4.30;;
22363;SDS011;11349;53.412;-1.328;2023-03-23T10:05:01;11.57;;;2.80;;
22363;SDS011;11349;53.412;-1.328;2023-03-23T10:07:52;16.63;;;3.67;;
22363;SDS011;11349;53.412;-1.328;2023-03-23T10:10:19;12.95;;;2.70;;
22363;SDS011;11349;53.412;-1.328;2023-03-23T10:12:59;8.70;;;2.05;;
22363;SDS011;11349;53.412;-1.328;2023-03-23T10:15:34;14.00;;;3.65;;
22363;SDS011;11349;53.412;-1.328;2023-03-23T10:18:15;14.02;;;2.85;;
22363;SDS011;11349;53.412;-1.328;2023-03-23T10:20:58;15.52;;;3.10;;
22363;SDS011;11349;53.412;-1.328;2023-03-23T10:29:22;15.57;;;2.80;;
22363;SDS011;11349;53.412;-1.328;2023-03-23T10:32:00;13.18;;;3.53;;
22363;SDS011;11349;53.412;-1.328;2023-03-23T10:34:57;14.23;;;3.25;;
22363;SDS011;11349;53.412;-1.328;2023-03-23T10:37:29;10.85;;;3.15;;
22363;SDS011;11349;53.412;-1.328;2023-03-23T10:39:59;11.93;;;3.47;;
22363;SDS011;11349;53.412;-1.328;2023-03-23T10:42:29;18.75;;;3.20;;
22363;SDS011;11349;53.412;-1.328;2023-03-23T10:44:58;15.68;;;2.85;;
22363;SDS011;11349;53.412;-1.328;2023-03-23T10:47:26;10.27;;;2.90;;
22363;SDS011;11349;53.412;-1.328;2023-03-23T10:49:58;13.40;;;3.03;;
22363;SDS011;11349;53.412;-1.328;2023-03-23T10:52:33;17.05;;;2.67;;
22363;SDS011;11349;53.412;-1.328;2023-03-23T10:55:09;15.55;;;2.33;;
22363;SDS011;11349;53.412;-1.328;2023-03-23T10:57:36;9.52;;;2.25;;
22363;SDS011;11349;53.412;-1.328;2023-03-23T11:00:06;12.68;;;2.65;;
22363;SDS011;11349;53.412;-1.328;2023-03-23T11:05:32;10.98;;;2.38;;
22363;SDS011;11349;53.412;-1.328;2023-03-23T11:08:01;15.77;;;2.70;;
22363;SDS011;11349;53.412;-1.328;2023-03-23T11:10:28;10.40;;;2.30;;
22363;SDS011;11349;53.412;-1.328;2023-03-23T11:13:02;10.10;;;2.33;;
22363;SDS011;11349;53.412;-1.328;2023-03-23T11:15:30;18.02;;;2.75;;
22363;SDS011;11349;53.412;-1.328;2023-03-23T11:18:09;12.63;;;2.55;;
22363;SDS011;11349;53.412;-1.328;2023-03-23T11:20:39;17.85;;;3.15;;
22363;SDS011;11349;53.412;-1.328;2023-03-23T11:31:36;12.23;;;2.85;;
22363;SDS011;11349;53.412;-1.328;2023-03-23T11:36:41;12.13;;;2.38;;
22363;SDS011;11349;53.412;-1.328;2023-03-23T11:39:20;15.13;;;2.45;;
22363;SDS011;11349;53.412;-1.328;2023-03-23T11:41:49;12.50;;;2.85;;
22363;SDS011;11349;53.412;-1.328;2023-03-23T11:44:15;11.90;;;3.13;;
22363;SDS011;11349;53.412;-1.328;2023-03-23T11:49:59;12.75;;;2.78;;
22363;SDS011;11349;53.412;-1.328;2023-03-23T11:52:02;13.57;;;3.03;;
22363;SDS011;11349;53.412;-1.328;2023-03-23T11:54:42;10.73;;;2.92;;
22363;SDS011;11349;53.412;-1.328;2023-03-23T11:57:13;9.20;;;2.30;;
22363;SDS011;11349;53.412;-1.328;2023-03-23T11:59:40;13.77;;;2.20;;
22363;SDS011;11349;53.412;-1.328;2023-03-23T12:08:07;6.57;;;2.05;;
22363;SDS011;11349;53.412;-1.328;2023-03-23T12:13:40;9.82;;;2.00;;
22363;SDS011;11349;53.412;-1.328;2023-03-23T12:24:40;9.27;;;1.90;;
22363;SDS011;11349;53.412;-1.328;2023-03-23T12:27:48;10.55;;;2.42;;
22363;SDS011;11349;53.412;-1.328;2023-03-23T12:38:29;9.70;;;2.58;;
22363;SDS011;11349;53.412;-1.328;2023-03-23T12:41:11;8.63;;;1.67;;
22363;SDS011;11349;53.412;-1.328;2023-03-23T12:46:21;13.07;;;2.35;;
22363;SDS011;11349;53.412;-1.328;2023-03-23T12:48:56;13.73;;;2.70;;
22363;SDS011;11349;53.412;-1.328;2023-03-23T12:51:32;16.33;;;2.38;;
22363;SDS011;11349;53.412;-1.328;2023-03-23T12:59:58;12.80;;;2.60;;
22363;SDS011;11349;53.412;-1.328;2023-03-23T13:02:44;11.63;;;1.90;;
22363;SDS011;11349;53.412;-1.328;2023-03-23T13:08:12;9.15;;;2.60;;
22363;SDS011;11349;53.412;-1.328;2023-03-23T13:10:48;9.82;;;2.58;;
22363;SDS011;11349;53.412;-1.328;2023-03-23T13:13:23;10.98;;;2.05;;
22363;SDS011;11349;53.412;-1.328;2023-03-23T13:23:42;8.43;;;2.25;;
22363;SDS011;11349;53.412;-1.328;2023-03-23T13:31:40;11.40;;;2.33;;
22363;SDS011;11349;53.412;-1.328;2023-03-23T13:36:58;8.38;;;1.63;;
22363;SDS011;11349;53.412;-1.328;2023-03-23T13:39:49;7.22;;;1.25;;
22363;SDS011;11349;53.412;-1.328;2023-03-23T13:50:03;6.35;;;1.88;;
22363;SDS011;11349;53.412;-1.328;2023-03-23T13:55:30;6.47;;;1.38;;
22363;SDS011;11349;53.412;-1.328;2023-03-23T14:10:59;8.88;;;2.00;;
22363;SDS011;11349;53.412;-1.328;2023-03-23T14:18:42;9.90;;;3.03;;
22363;SDS011;11349;53.412;-1.328;2023-03-23T14:21:40;8.43;;;1.80;;
22363;SDS011;11349;53.412;-1.328;2023-03-23T14:24:17;8.68;;;2.10;;
22363;SDS011;11349;53.412;-1.328;2023-03-23T14:27:28;9.60;;;2.67;;
22363;SDS011;11349;53.412;-1.328;2023-03-23T14:29:57;9.25;;;2.47;;
22363;SDS011;11349;53.412;-1.328;2023-03-23T14:32:24;9.55;;;2.60;;
22363;SDS011;11349;53.412;-1.328;2023-03-23T14:34:52;11.20;;;3.05;;
22363;SDS011;11349;53.412;-1.328;2023-03-23T14:37:19;12.07;;;2.55;;
22363;SDS011;11349;53.412;-1.328;2023-03-23T14:39:47;10.43;;;2.53;;
22363;SDS011;11349;53.412;-1.328;2023-03-23T14:42:16;9.85;;;2.35;;
22363;SDS011;11349;53.412;-1.328;2023-03-23T14:44:46;10.55;;;2.47;;
22363;SDS011;11349;53.412;-1.328;2023-03-23T14:47:48;12.93;;;2.75;;
22363;SDS011;11349;53.412;-1.328;2023-03-23T14:53:12;8.60;;;2.10;;
22363;SDS011;11349;53.412;-1.328;2023-03-23T14:55:59;11.15;;;3.72;;
22363;SDS011;11349;53.412;-1.328;2023-03-23T14:58:31;10.55;;;2.30;;
22363;SDS011;11349;53.412;-1.328;2023-03-23T15:03:31;10.35;;;2.38;;
22363;SDS011;11349;53.412;-1.328;2023-03-23T15:06:03;13.60;;;2.33;;
22363;SDS011;11349;53.412;-1.328;2023-03-23T15:08:32;12.43;;;2.50;;
22363;SDS011;11349;53.412;-1.328;2023-03-23T15:13:28;12.95;;;3.17;;
22363;SDS011;11349;53.412;-1.328;2023-03-23T15:16:19;8.07;;;1.80;;
22363;SDS011;11349;53.412;-1.328;2023-03-23T15:18:48;9.27;;;2.65;;
22363;SDS011;11349;53.412;-1.328;2023-03-23T15:22:13;9.45;;;1.88;;
22363;SDS011;11349;53.412;-1.328;2023-03-23T15:24:20;12.45;;;2.42;;
22363;SDS011;11349;53.412;-1.328;2023-03-23T15:26:52;12.75;;;2.47;;
22363;SDS011;11349;53.412;-1.328;2023-03-23T15:29:19;10.65;;;2.40;;
22363;SDS011;11349;53.412;-1.328;2023-03-23T15:31:49;9.55;;;2.65;;
22363;SDS011;11349;53.412;-1.328;2023-03-23T15:34:25;9.60;;;2.22;;
22363;SDS011;11349;53.412;-1.328;2023-03-23T15:37:04;11.27;;;2.58;;
22363;SDS011;11349;53.412;-1.328;2023-03-23T15:39:32;11.70;;;2.50;;
22363;SDS011;11349;53.412;-1.328;2023-03-23T15:41:58;10.13;;;2.63;;
22363;SDS011;11349;53.412;-1.328;2023-03-23T15:47:15;13.80;;;2.60;;
22363;SDS011;11349;53.412;-1.328;2023-03-23T15:49:44;10.10;;;2.47;;
22363;SDS011;11349;53.412;-1.328;2023-03-23T15:52:11;8.30;;;1.85;;
22363;SDS011;11349;53.412;-1.328;2023-03-23T15:54:40;7.38;;;2.03;;
22363;SDS011;11349;53.412;-1.328;2023-03-23T15:57:12;12.00;;;2.42;;
22363;SDS011;11349;53.412;-1.328;2023-03-23T15:59:37;11.55;;;2.35;;
22363;SDS011;11349;53.412;-1.328;2023-03-23T16:02:03;9.50;;;3.10;;
22363;SDS011;11349;53.412;-1.328;2023-03-23T16:04:29;11.60;;;2.00;;
22363;SDS011;11349;53.412;-1.328;2023-03-23T16:06:57;13.40;;;2.38;;
22363;SDS011;11349;53.412;-1.328;2023-03-23T16:09:23;14.27;;;2.60;;
22363;SDS011;11349;53.412;-1.328;2023-03-23T16:11:48;12.52;;;2.40;;
22363;SDS011;11349;53.412;-1.328;2023-03-23T16:14:14;10.85;;;2.45;;
22363;SDS011;11349;53.412;-1.328;2023-03-23T16:16:44;10.85;;;2.05;;
22363;SDS011;11349;53.412;-1.328;2023-03-23T16:19:12;8.77;;;2.15;;
22363;SDS011;11349;53.412;-1.328;2023-03-23T16:21:39;8.73;;;2.78;;
22363;SDS011;11349;53.412;-1.328;2023-03-23T16:24:06;12.10;;;4.00;;
22363;SDS011;11349;53.412;-1.328;2023-03-23T16:26:32;14.23;;;2.88;;
22363;SDS011;11349;53.412;-1.328;2023-03-23T16:28:59;13.02;;;3.22;;
22363;SDS011;11349;53.412;-1.328;2023-03-23T16:31:25;10.10;;;2.33;;
22363;SDS011;11349;53.412;-1.328;2023-03-23T16:33:50;10.98;;;2.58;;
22363;SDS011;11349;53.412;-1.328;2023-03-23T16:36:16;9.00;;;2.13;;
22363;SDS011;11349;53.412;-1.328;2023-03-23T16:38:42;13.75;;;3.35;;
22363;SDS011;11349;53.412;-1.328;2023-03-23T16:41:08;16.67;;;3.67;;
22363;SDS011;11349;53.412;-1.328;2023-03-23T16:43:34;11.45;;;3.20;;
22363;SDS011;11349;53.412;-1.328;2023-03-23T16:46:00;16.10;;;3.22;;
22363;SDS011;11349;53.412;-1.328;2023-03-23T16:48:26;13.57;;;2.80;;
22363;SDS011;11349;53.412;-1.328;2023-03-23T16:50:52;10.38;;;2.72;;
22363;SDS011;11349;53.412;-1.328;2023-03-23T16:53:18;11.60;;;2.65;;
22363;SDS011;11349;53.412;-1.328;2023-03-23T16:55:45;13.73;;;3.55;;
22363;SDS011;11349;53.412;-1.328;2023-03-23T16:58:15;15.38;;;3.95;;
22363;SDS011;11349;53.412;-1.328;2023-03-23T17:00:41;13.50;;;2.72;;
22363;SDS011;11349;53.412;-1.328;2023-03-23T17:03:07;13.35;;;2.47;;
22363;SDS011;11349;53.412;-1.328;2023-03-23T17:05:34;9.07;;;2.50;;
22363;SDS011;11349;53.412;-1.328;2023-03-23T17:08:00;7.78;;;2.72;;
22363;SDS011;11349;53.412;-1.328;2023-03-23T17:10:27;11.48;;;2.63;;